sensor_id;sensor_type;location;lat;lon;timestamp;P1;durP1;ratioP1;P2;durP2;ratioP2
5616;SDS011;2830;50.656;7.568;2023-07-31T00:01:20;6.00;;;2.93;;
5616;SDS011;2830;50.656;7.568;2023-07-31T00:03:47;6.13;;;2.70;;
5616;SDS011;2830;50.656;7.568;2023-07-31T00:06:14;8.43;;;3.23;;
5616;SDS011;2830;50.656;7.568;2023-07-31T00:08:41;8.67;;;2.40;;
5616;SDS011;2830;50.656;7.568;2023-07-31T00:11:07;6.23;;;2.73;;
5616;SDS011;2830;50.656;7.568;2023-07-31T00:13:34;6.47;;;2.53;;
5616;SDS011;2830;50.656;7.568;2023-07-31T00:16:01;4.63;;;2.60;;
5616;SDS011;2830;50.656;7.568;2023-07-31T00:18:28;6.50;;;2.50;;
5616;SDS011;2830;50.656;7.568;2023-07-31T00:20:54;5.40;;;2.50;;
5616;SDS011;2830;50.656;7.568;2023-07-31T00:23:21;5.77;;;2.60;;
5616;SDS011;2830;50.656;7.568;2023-07-31T00:25:48;2.73;;;1.80;;
5616;SDS011;2830;50.656;7.568;2023-07-31T00:28:14;4.57;;;2.80;;
5616;SDS011;2830;50.656;7.568;2023-07-31T00:30:41;6.17;;;2.97;;
5616;SDS011;2830;50.656;7.568;2023-07-31T00:33:08;4.73;;;2.23;;
5616;SDS011;2830;50.656;7.568;2023-07-31T00:35:35;8.00;;;2.77;;
5616;SDS011;2830;50.656;7.568;2023-07-31T00:38:01;5.20;;;2.40;;
5616;SDS011;2830;50.656;7.568;2023-07-31T00:40:28;7.73;;;2.43;;
5616;SDS011;2830;50.656;7.568;2023-07-31T00:42:55;4.23;;;2.37;;
5616;SDS011;2830;50.656;7.568;2023-07-31T00:45:21;8.10;;;2.60;;
5616;SDS011;2830;50.656;7.568;2023-07-31T00:47:49;8.13;;;2.63;;
5616;SDS011;2830;50.656;7.568;2023-07-31T00:50:16;5.67;;;2.00;;
5616;SDS011;2830;50.656;7.568;2023-07-31T00:52:43;4.70;;;2.40;;
5616;SDS011;2830;50.656;7.568;2023-07-31T00:55:10;7.07;;;2.70;;
5616;SDS011;2830;50.656;7.568;2023-07-31T00:57:37;4.27;;;2.07;;
5616;SDS011;2830;50.656;7.568;2023-07-31T01:00:05;3.70;;;2.17;;
5616;SDS011;2830;50.656;7.568;2023-07-31T01:02:33;8.10;;;2.97;;
5616;SDS011;2830;50.656;7.568;2023-07-31T01:05:01;6.77;;;2.60;;
5616;SDS011;2830;50.656;7.568;2023-07-31T01:10:16;4.93;;;2.60;;
5616;SDS011;2830;50.656;7.568;2023-07-31T01:12:47;4.47;;;2.53;;
5616;SDS011;2830;50.656;7.568;2023-07-31T01:15:16;5.10;;;2.70;;
5616;SDS011;2830;50.656;7.568;2023-07-31T01:17:44;6.80;;;2.00;;
5616;SDS011;2830;50.656;7.568;2023-07-31T01:20:12;3.83;;;1.87;;
5616;SDS011;2830;50.656;7.568;2023-07-31T01:28:25;3.67;;;2.23;;
5616;SDS011;2830;50.656;7.568;2023-07-31T01:31:15;3.90;;;2.17;;
5616;SDS011;2830;50.656;7.568;2023-07-31T01:33:46;4.73;;;2.20;;
5616;SDS011;2830;50.656;7.568;2023-07-31T01:36:14;3.57;;;2.20;;
5616;SDS011;2830;50.656;7.568;2023-07-31T01:38:41;4.83;;;2.67;;
5616;SDS011;2830;50.656;7.568;2023-07-31T01:41:07;5.50;;;2.40;;
5616;SDS011;2830;50.656;7.568;2023-07-31T01:43:34;9.43;;;3.10;;
5616;SDS011;2830;50.656;7.568;2023-07-31T01:46:01;5.43;;;2.47;;
5616;SDS011;2830;50.656;7.568;2023-07-31T01:48:28;6.70;;;2.40;;
5616;SDS011;2830;50.656;7.568;2023-07-31T01:50:55;5.97;;;2.60;;
5616;SDS011;2830;50.656;7.568;2023-07-31T01:53:21;8.67;;;2.90;;
5616;SDS011;2830;50.656;7.568;2023-07-31T01:55:48;3.40;;;2.20;;
5616;SDS011;2830;50.656;7.568;2023-07-31T01:58:14;5.20;;;2.50;;
5616;SDS011;2830;50.656;7.568;2023-07-31T02:00:41;5.17;;;2.17;;
5616;SDS011;2830;50.656;7.568;2023-07-31T02:03:08;7.33;;;2.37;;
5616;SDS011;2830;50.656;7.568;2023-07-31T02:05:36;6.47;;;2.90;;
5616;SDS011;2830;50.656;7.568;2023-07-31T02:08:03;5.20;;;3.03;;
5616;SDS011;2830;50.656;7.568;2023-07-31T02:10:31;3.37;;;2.07;;
5616;SDS011;2830;50.656;7.568;2023-07-31T02:12:58;7.07;;;2.73;;
5616;SDS011;2830;50.656;7.568;2023-07-31T02:15:25;3.67;;;2.43;;
5616;SDS011;2830;50.656;7.568;2023-07-31T02:17:52;5.00;;;2.90;;
5616;SDS011;2830;50.656;7.568;2023-07-31T02:20:18;6.63;;;2.70;;
5616;SDS011;2830;50.656;7.568;2023-07-31T02:22:45;5.57;;;2.40;;
5616;SDS011;2830;50.656;7.568;2023-07-31T02:25:12;8.20;;;3.07;;
5616;SDS011;2830;50.656;7.568;2023-07-31T02:27:38;11.40;;;3.10;;
5616;SDS011;2830;50.656;7.568;2023-07-31T02:30:05;6.33;;;2.50;;
5616;SDS011;2830;50.656;7.568;2023-07-31T02:32:32;6.33;;;3.00;;
5616;SDS011;2830;50.656;7.568;2023-07-31T02:34:59;7.00;;;3.37;;
5616;SDS011;2830;50.656;7.568;2023-07-31T02:37:26;5.33;;;2.43;;
5616;SDS011;2830;50.656;7.568;2023-07-31T02:39:54;6.23;;;2.30;;
5616;SDS011;2830;50.656;7.568;2023-07-31T02:42:21;5.83;;;3.13;;
5616;SDS011;2830;50.656;7.568;2023-07-31T02:44:48;5.20;;;3.37;;
5616;SDS011;2830;50.656;7.568;2023-07-31T02:47:15;7.87;;;4.07;;
5616;SDS011;2830;50.656;7.568;2023-07-31T02:49:42;6.07;;;2.63;;
5616;SDS011;2830;50.656;7.568;2023-07-31T02:52:08;11.67;;;3.80;;
5616;SDS011;2830;50.656;7.568;2023-07-31T02:54:35;5.87;;;2.67;;
5616;SDS011;2830;50.656;7.568;2023-07-31T02:57:04;5.50;;;3.20;;
5616;SDS011;2830;50.656;7.568;2023-07-31T02:59:31;5.13;;;3.10;;
5616;SDS011;2830;50.656;7.568;2023-07-31T03:01:58;11.10;;;3.53;;
5616;SDS011;2830;50.656;7.568;2023-07-31T03:04:24;4.93;;;2.40;;
5616;SDS011;2830;50.656;7.568;2023-07-31T03:06:51;6.90;;;3.60;;
5616;SDS011;2830;50.656;7.568;2023-07-31T03:09:18;5.00;;;2.90;;
5616;SDS011;2830;50.656;7.568;2023-07-31T03:11:44;4.23;;;2.50;;
5616;SDS011;2830;50.656;7.568;2023-07-31T03:14:11;7.37;;;2.63;;
5616;SDS011;2830;50.656;7.568;2023-07-31T03:16:38;5.23;;;2.60;;
5616;SDS011;2830;50.656;7.568;2023-07-31T03:19:05;4.70;;;2.70;;
5616;SDS011;2830;50.656;7.568;2023-07-31T03:21:32;6.83;;;3.47;;
5616;SDS011;2830;50.656;7.568;2023-07-31T03:23:58;6.23;;;3.47;;
5616;SDS011;2830;50.656;7.568;2023-07-31T03:26:25;5.50;;;2.60;;
5616;SDS011;2830;50.656;7.568;2023-07-31T03:28:52;5.87;;;2.40;;
5616;SDS011;2830;50.656;7.568;2023-07-31T03:31:19;4.93;;;2.97;;
5616;SDS011;2830;50.656;7.568;2023-07-31T03:33:45;4.07;;;2.23;;
5616;SDS011;2830;50.656;7.568;2023-07-31T03:36:12;4.20;;;2.77;;
5616;SDS011;2830;50.656;7.568;2023-07-31T03:38:39;3.97;;;2.70;;
5616;SDS011;2830;50.656;7.568;2023-07-31T03:41:05;4.27;;;2.60;;
5616;SDS011;2830;50.656;7.568;2023-07-31T03:43:32;8.13;;;2.77;;
5616;SDS011;2830;50.656;7.568;2023-07-31T03:46:02;10.33;;;3.00;;
5616;SDS011;2830;50.656;7.568;2023-07-31T03:48:29;4.70;;;3.00;;
5616;SDS011;2830;50.656;7.568;2023-07-31T03:50:55;5.97;;;3.00;;
5616;SDS011;2830;50.656;7.568;2023-07-31T03:53:22;4.47;;;2.77;;
5616;SDS011;2830;50.656;7.568;2023-07-31T03:55:49;9.53;;;2.50;;
5616;SDS011;2830;50.656;7.568;2023-07-31T03:58:16;9.30;;;2.30;;
5616;SDS011;2830;50.656;7.568;2023-07-31T04:00:42;5.17;;;2.47;;
5616;SDS011;2830;50.656;7.568;2023-07-31T04:03:09;5.33;;;2.57;;
5616;SDS011;2830;50.656;7.568;2023-07-31T04:05:37;4.50;;;2.23;;
5616;SDS011;2830;50.656;7.568;2023-07-31T04:08:05;4.83;;;2.63;;
5616;SDS011;2830;50.656;7.568;2023-07-31T04:10:32;7.60;;;3.17;;
5616;SDS011;2830;50.656;7.568;2023-07-31T04:12:59;7.03;;;3.10;;
5616;SDS011;2830;50.656;7.568;2023-07-31T04:15:26;6.87;;;3.00;;
5616;SDS011;2830;50.656;7.568;2023-07-31T04:17:53;9.63;;;2.60;;
5616;SDS011;2830;50.656;7.568;2023-07-31T04:20:20;6.90;;;2.80;;
5616;SDS011;2830;50.656;7.568;2023-07-31T04:22:47;6.40;;;2.47;;
5616;SDS011;2830;50.656;7.568;2023-07-31T04:25:14;4.97;;;2.57;;
5616;SDS011;2830;50.656;7.568;2023-07-31T04:27:41;6.13;;;3.00;;
5616;SDS011;2830;50.656;7.568;2023-07-31T04:30:08;4.63;;;2.83;;
5616;SDS011;2830;50.656;7.568;2023-07-31T04:32:34;4.83;;;2.13;;
5616;SDS011;2830;50.656;7.568;2023-07-31T04:35:02;8.77;;;2.40;;
5616;SDS011;2830;50.656;7.568;2023-07-31T04:37:29;4.63;;;2.73;;
5616;SDS011;2830;50.656;7.568;2023-07-31T04:39:56;7.80;;;3.00;;
5616;SDS011;2830;50.656;7.568;2023-07-31T04:42:23;4.80;;;2.80;;
5616;SDS011;2830;50.656;7.568;2023-07-31T04:44:49;4.70;;;2.70;;
5616;SDS011;2830;50.656;7.568;2023-07-31T04:47:16;5.60;;;2.67;;
5616;SDS011;2830;50.656;7.568;2023-07-31T04:49:43;7.80;;;2.90;;
5616;SDS011;2830;50.656;7.568;2023-07-31T04:52:09;6.77;;;4.43;;
5616;SDS011;2830;50.656;7.568;2023-07-31T04:54:36;6.17;;;2.83;;
5616;SDS011;2830;50.656;7.568;2023-07-31T04:57:03;4.93;;;2.57;;
5616;SDS011;2830;50.656;7.568;2023-07-31T04:59:29;5.70;;;2.40;;
5616;SDS011;2830;50.656;7.568;2023-07-31T05:01:57;4.80;;;3.00;;
5616;SDS011;2830;50.656;7.568;2023-07-31T05:04:24;4.70;;;2.83;;
5616;SDS011;2830;50.656;7.568;2023-07-31T05:06:51;12.70;;;2.67;;
5616;SDS011;2830;50.656;7.568;2023-07-31T05:09:18;5.40;;;2.97;;
5616;SDS011;2830;50.656;7.568;2023-07-31T05:11:44;5.30;;;3.40;;
5616;SDS011;2830;50.656;7.568;2023-07-31T05:14:11;4.10;;;2.30;;
5616;SDS011;2830;50.656;7.568;2023-07-31T05:16:38;3.27;;;2.30;;
5616;SDS011;2830;50.656;7.568;2023-07-31T05:19:05;3.83;;;2.10;;
5616;SDS011;2830;50.656;7.568;2023-07-31T05:21:32;4.13;;;2.20;;
5616;SDS011;2830;50.656;7.568;2023-07-31T05:23:59;4.80;;;2.67;;
5616;SDS011;2830;50.656;7.568;2023-07-31T05:26:26;5.70;;;2.53;;
5616;SDS011;2830;50.656;7.568;2023-07-31T05:28:52;7.90;;;2.83;;
5616;SDS011;2830;50.656;7.568;2023-07-31T05:31:19;3.70;;;2.67;;
5616;SDS011;2830;50.656;7.568;2023-07-31T05:33:48;3.40;;;2.37;;
5616;SDS011;2830;50.656;7.568;2023-07-31T05:36:16;3.70;;;2.63;;
5616;SDS011;2830;50.656;7.568;2023-07-31T05:38:43;4.77;;;2.40;;
5616;SDS011;2830;50.656;7.568;2023-07-31T05:41:11;4.83;;;2.57;;
5616;SDS011;2830;50.656;7.568;2023-07-31T05:43:38;7.80;;;2.60;;
5616;SDS011;2830;50.656;7.568;2023-07-31T05:46:05;8.03;;;3.60;;
5616;SDS011;2830;50.656;7.568;2023-07-31T05:48:33;4.67;;;2.60;;
5616;SDS011;2830;50.656;7.568;2023-07-31T05:51:04;4.53;;;3.00;;
5616;SDS011;2830;50.656;7.568;2023-07-31T05:53:31;4.50;;;2.20;;
5616;SDS011;2830;50.656;7.568;2023-07-31T05:55:57;2.93;;;2.03;;
5616;SDS011;2830;50.656;7.568;2023-07-31T05:58:24;4.63;;;2.47;;
5616;SDS011;2830;50.656;7.568;2023-07-31T06:00:51;3.60;;;1.93;;
5616;SDS011;2830;50.656;7.568;2023-07-31T06:03:17;4.70;;;2.43;;
5616;SDS011;2830;50.656;7.568;2023-07-31T06:05:44;5.70;;;2.97;;
5616;SDS011;2830;50.656;7.568;2023-07-31T06:08:11;5.50;;;2.63;;
5616;SDS011;2830;50.656;7.568;2023-07-31T06:10:38;7.00;;;2.70;;
5616;SDS011;2830;50.656;7.568;2023-07-31T06:13:04;4.73;;;2.20;;
5616;SDS011;2830;50.656;7.568;2023-07-31T06:15:31;7.13;;;3.17;;
5616;SDS011;2830;50.656;7.568;2023-07-31T06:17:58;4.83;;;2.27;;
5616;SDS011;2830;50.656;7.568;2023-07-31T06:20:28;5.83;;;2.70;;
5616;SDS011;2830;50.656;7.568;2023-07-31T06:22:55;7.00;;;2.53;;
5616;SDS011;2830;50.656;7.568;2023-07-31T06:25:21;3.80;;;2.23;;
5616;SDS011;2830;50.656;7.568;2023-07-31T06:27:48;10.67;;;3.57;;
5616;SDS011;2830;50.656;7.568;2023-07-31T06:30:15;7.23;;;2.53;;
5616;SDS011;2830;50.656;7.568;2023-07-31T06:32:41;5.80;;;2.53;;
5616;SDS011;2830;50.656;7.568;2023-07-31T06:35:09;3.97;;;2.37;;
5616;SDS011;2830;50.656;7.568;2023-07-31T06:37:35;5.17;;;2.53;;
5616;SDS011;2830;50.656;7.568;2023-07-31T06:40:03;6.57;;;3.53;;
5616;SDS011;2830;50.656;7.568;2023-07-31T06:42:31;5.33;;;2.17;;
5616;SDS011;2830;50.656;7.568;2023-07-31T06:44:58;7.10;;;2.83;;
5616;SDS011;2830;50.656;7.568;2023-07-31T06:47:25;5.37;;;2.90;;
5616;SDS011;2830;50.656;7.568;2023-07-31T06:49:52;6.30;;;2.93;;
5616;SDS011;2830;50.656;7.568;2023-07-31T06:52:19;5.00;;;2.50;;
5616;SDS011;2830;50.656;7.568;2023-07-31T06:54:59;5.60;;;2.90;;
5616;SDS011;2830;50.656;7.568;2023-07-31T06:57:28;5.00;;;2.60;;
5616;SDS011;2830;50.656;7.568;2023-07-31T06:59:54;5.77;;;2.60;;
5616;SDS011;2830;50.656;7.568;2023-07-31T07:02:21;6.80;;;3.20;;
5616;SDS011;2830;50.656;7.568;2023-07-31T07:04:48;7.53;;;3.37;;
5616;SDS011;2830;50.656;7.568;2023-07-31T07:07:15;7.60;;;3.17;;
5616;SDS011;2830;50.656;7.568;2023-07-31T07:09:42;6.93;;;3.97;;
5616;SDS011;2830;50.656;7.568;2023-07-31T07:12:09;7.03;;;3.43;;
5616;SDS011;2830;50.656;7.568;2023-07-31T07:14:36;9.97;;;3.10;;
5616;SDS011;2830;50.656;7.568;2023-07-31T07:17:02;8.40;;;3.83;;
5616;SDS011;2830;50.656;7.568;2023-07-31T07:19:30;7.43;;;3.40;;
5616;SDS011;2830;50.656;7.568;2023-07-31T07:21:57;6.53;;;3.17;;
5616;SDS011;2830;50.656;7.568;2023-07-31T07:24:25;5.90;;;3.77;;
5616;SDS011;2830;50.656;7.568;2023-07-31T07:26:52;6.33;;;3.60;;
5616;SDS011;2830;50.656;7.568;2023-07-31T07:29:19;11.70;;;3.77;;
5616;SDS011;2830;50.656;7.568;2023-07-31T07:31:45;6.43;;;3.17;;
5616;SDS011;2830;50.656;7.568;2023-07-31T07:34:12;6.13;;;3.43;;
5616;SDS011;2830;50.656;7.568;2023-07-31T07:36:39;6.80;;;3.10;;
5616;SDS011;2830;50.656;7.568;2023-07-31T07:39:06;6.67;;;3.27;;
5616;SDS011;2830;50.656;7.568;2023-07-31T07:41:34;6.67;;;3.10;;
5616;SDS011;2830;50.656;7.568;2023-07-31T07:44:01;7.43;;;3.50;;
5616;SDS011;2830;50.656;7.568;2023-07-31T07:46:27;7.70;;;2.67;;
5616;SDS011;2830;50.656;7.568;2023-07-31T07:48:54;7.60;;;3.73;;
5616;SDS011;2830;50.656;7.568;2023-07-31T07:51:21;5.93;;;2.73;;
5616;SDS011;2830;50.656;7.568;2023-07-31T07:53:47;5.90;;;3.40;;
5616;SDS011;2830;50.656;7.568;2023-07-31T07:56:14;7.47;;;3.40;;
5616;SDS011;2830;50.656;7.568;2023-07-31T07:58:41;7.37;;;2.63;;
5616;SDS011;2830;50.656;7.568;2023-07-31T08:01:08;14.10;;;3.63;;
5616;SDS011;2830;50.656;7.568;2023-07-31T08:03:35;4.50;;;2.60;;
5616;SDS011;2830;50.656;7.568;2023-07-31T08:06:01;7.17;;;4.03;;
5616;SDS011;2830;50.656;7.568;2023-07-31T08:08:28;7.70;;;3.23;;
5616;SDS011;2830;50.656;7.568;2023-07-31T08:10:55;6.63;;;4.03;;
5616;SDS011;2830;50.656;7.568;2023-07-31T08:13:21;6.97;;;3.40;;
5616;SDS011;2830;50.656;7.568;2023-07-31T08:15:48;8.67;;;2.93;;
5616;SDS011;2830;50.656;7.568;2023-07-31T08:18:15;11.70;;;4.47;;
5616;SDS011;2830;50.656;7.568;2023-07-31T08:20:43;6.90;;;3.27;;
5616;SDS011;2830;50.656;7.568;2023-07-31T08:23:10;7.00;;;2.93;;
5616;SDS011;2830;50.656;7.568;2023-07-31T08:25:37;6.50;;;3.63;;
5616;SDS011;2830;50.656;7.568;2023-07-31T08:28:04;10.00;;;4.03;;
5616;SDS011;2830;50.656;7.568;2023-07-31T08:30:32;6.40;;;3.20;;
5616;SDS011;2830;50.656;7.568;2023-07-31T08:33:02;10.30;;;4.73;;
5616;SDS011;2830;50.656;7.568;2023-07-31T08:35:29;10.70;;;3.93;;
5616;SDS011;2830;50.656;7.568;2023-07-31T08:37:56;8.70;;;3.90;;
5616;SDS011;2830;50.656;7.568;2023-07-31T08:40:22;14.10;;;4.10;;
5616;SDS011;2830;50.656;7.568;2023-07-31T08:42:52;5.97;;;3.83;;
5616;SDS011;2830;50.656;7.568;2023-07-31T08:45:20;10.67;;;3.90;;
5616;SDS011;2830;50.656;7.568;2023-07-31T08:47:51;11.23;;;4.40;;
5616;SDS011;2830;50.656;7.568;2023-07-31T08:50:19;7.07;;;3.57;;
5616;SDS011;2830;50.656;7.568;2023-07-31T08:52:47;8.00;;;3.63;;
5616;SDS011;2830;50.656;7.568;2023-07-31T08:55:15;8.23;;;3.80;;
5616;SDS011;2830;50.656;7.568;2023-07-31T08:57:42;8.17;;;4.37;;
5616;SDS011;2830;50.656;7.568;2023-07-31T09:00:10;7.33;;;4.50;;
5616;SDS011;2830;50.656;7.568;2023-07-31T09:02:38;9.30;;;4.80;;
5616;SDS011;2830;50.656;7.568;2023-07-31T09:05:11;7.20;;;4.20;;
5616;SDS011;2830;50.656;7.568;2023-07-31T09:07:38;6.23;;;3.60;;
5616;SDS011;2830;50.656;7.568;2023-07-31T09:10:06;9.40;;;3.60;;
5616;SDS011;2830;50.656;7.568;2023-07-31T09:12:33;14.77;;;4.60;;
5616;SDS011;2830;50.656;7.568;2023-07-31T09:15:01;9.57;;;3.90;;
5616;SDS011;2830;50.656;7.568;2023-07-31T09:17:29;8.63;;;5.07;;
5616;SDS011;2830;50.656;7.568;2023-07-31T09:19:57;7.57;;;3.67;;
5616;SDS011;2830;50.656;7.568;2023-07-31T09:22:34;9.43;;;4.10;;
5616;SDS011;2830;50.656;7.568;2023-07-31T09:25:15;7.60;;;4.37;;
5616;SDS011;2830;50.656;7.568;2023-07-31T09:27:53;8.73;;;4.87;;
5616;SDS011;2830;50.656;7.568;2023-07-31T09:30:23;9.80;;;4.50;;
5616;SDS011;2830;50.656;7.568;2023-07-31T09:32:51;13.40;;;4.50;;
5616;SDS011;2830;50.656;7.568;2023-07-31T09:35:30;9.07;;;4.93;;
5616;SDS011;2830;50.656;7.568;2023-07-31T09:37:59;9.53;;;4.23;;
5616;SDS011;2830;50.656;7.568;2023-07-31T09:40:30;7.87;;;3.83;;
5616;SDS011;2830;50.656;7.568;2023-07-31T09:42:59;7.60;;;4.37;;
5616;SDS011;2830;50.656;7.568;2023-07-31T09:45:27;9.50;;;4.77;;
5616;SDS011;2830;50.656;7.568;2023-07-31T09:48:07;11.93;;;3.60;;
5616;SDS011;2830;50.656;7.568;2023-07-31T09:50:45;7.30;;;3.70;;
5616;SDS011;2830;50.656;7.568;2023-07-31T09:53:13;14.37;;;4.23;;
5616;SDS011;2830;50.656;7.568;2023-07-31T09:55:40;11.07;;;4.37;;
5616;SDS011;2830;50.656;7.568;2023-07-31T09:58:09;8.80;;;4.10;;
5616;SDS011;2830;50.656;7.568;2023-07-31T10:00:37;7.33;;;3.57;;
5616;SDS011;2830;50.656;7.568;2023-07-31T10:03:05;8.73;;;5.10;;
5616;SDS011;2830;50.656;7.568;2023-07-31T10:05:34;6.90;;;3.60;;
5616;SDS011;2830;50.656;7.568;2023-07-31T10:08:21;10.73;;;4.00;;
5616;SDS011;2830;50.656;7.568;2023-07-31T10:10:58;7.40;;;4.67;;
5616;SDS011;2830;50.656;7.568;2023-07-31T10:13:27;6.50;;;3.70;;
5616;SDS011;2830;50.656;7.568;2023-07-31T10:15:55;5.63;;;3.03;;
5616;SDS011;2830;50.656;7.568;2023-07-31T10:18:25;9.00;;;3.90;;
5616;SDS011;2830;50.656;7.568;2023-07-31T10:20:53;7.40;;;3.63;;
5616;SDS011;2830;50.656;7.568;2023-07-31T10:23:21;5.20;;;3.20;;
5616;SDS011;2830;50.656;7.568;2023-07-31T10:25:49;7.80;;;4.37;;
5616;SDS011;2830;50.656;7.568;2023-07-31T10:28:18;12.27;;;3.43;;
5616;SDS011;2830;50.656;7.568;2023-07-31T10:30:47;10.03;;;3.70;;
5616;SDS011;2830;50.656;7.568;2023-07-31T10:33:15;10.53;;;4.57;;
5616;SDS011;2830;50.656;7.568;2023-07-31T10:35:43;11.20;;;3.70;;
5616;SDS011;2830;50.656;7.568;2023-07-31T10:38:11;6.20;;;3.03;;
5616;SDS011;2830;50.656;7.568;2023-07-31T10:40:38;10.23;;;3.70;;
5616;SDS011;2830;50.656;7.568;2023-07-31T10:43:05;8.90;;;3.47;;
5616;SDS011;2830;50.656;7.568;2023-07-31T10:45:38;7.27;;;3.33;;
5616;SDS011;2830;50.656;7.568;2023-07-31T10:48:15;14.57;;;4.77;;
5616;SDS011;2830;50.656;7.568;2023-07-31T10:50:47;5.60;;;3.33;;
5616;SDS011;2830;50.656;7.568;2023-07-31T10:53:25;9.33;;;3.47;;
5616;SDS011;2830;50.656;7.568;2023-07-31T10:55:59;6.70;;;2.80;;
5616;SDS011;2830;50.656;7.568;2023-07-31T10:58:27;7.00;;;4.10;;
5616;SDS011;2830;50.656;7.568;2023-07-31T11:00:58;6.03;;;3.57;;
5616;SDS011;2830;50.656;7.568;2023-07-31T11:03:27;8.33;;;3.70;;
5616;SDS011;2830;50.656;7.568;2023-07-31T11:06:08;6.53;;;3.40;;
5616;SDS011;2830;50.656;7.568;2023-07-31T11:08:35;8.00;;;3.57;;
5616;SDS011;2830;50.656;7.568;2023-07-31T11:11:10;8.03;;;2.80;;
5616;SDS011;2830;50.656;7.568;2023-07-31T11:13:45;7.80;;;3.87;;
5616;SDS011;2830;50.656;7.568;2023-07-31T11:16:17;5.80;;;3.30;;
5616;SDS011;2830;50.656;7.568;2023-07-31T11:18:48;8.43;;;3.37;;
5616;SDS011;2830;50.656;7.568;2023-07-31T11:21:21;6.30;;;2.93;;
5616;SDS011;2830;50.656;7.568;2023-07-31T11:23:49;9.57;;;3.07;;
5616;SDS011;2830;50.656;7.568;2023-07-31T11:26:18;4.03;;;2.83;;
5616;SDS011;2830;50.656;7.568;2023-07-31T11:28:46;6.37;;;2.90;;
5616;SDS011;2830;50.656;7.568;2023-07-31T11:31:14;5.50;;;2.30;;
5616;SDS011;2830;50.656;7.568;2023-07-31T11:33:41;9.13;;;2.70;;
5616;SDS011;2830;50.656;7.568;2023-07-31T11:36:18;6.90;;;2.60;;
5616;SDS011;2830;50.656;7.568;2023-07-31T11:38:47;4.70;;;2.90;;
5616;SDS011;2830;50.656;7.568;2023-07-31T11:41:15;3.83;;;2.20;;
5616;SDS011;2830;50.656;7.568;2023-07-31T11:43:42;4.67;;;2.50;;
5616;SDS011;2830;50.656;7.568;2023-07-31T11:46:09;4.37;;;2.10;;
5616;SDS011;2830;50.656;7.568;2023-07-31T11:48:37;5.90;;;3.37;;
5616;SDS011;2830;50.656;7.568;2023-07-31T11:51:05;7.23;;;2.30;;
5616;SDS011;2830;50.656;7.568;2023-07-31T11:53:38;5.80;;;2.20;;
5616;SDS011;2830;50.656;7.568;2023-07-31T11:56:16;5.47;;;2.33;;
5616;SDS011;2830;50.656;7.568;2023-07-31T11:58:47;3.57;;;2.30;;
5616;SDS011;2830;50.656;7.568;2023-07-31T12:01:18;6.17;;;2.10;;
5616;SDS011;2830;50.656;7.568;2023-07-31T12:03:47;3.97;;;1.73;;
5616;SDS011;2830;50.656;7.568;2023-07-31T12:06:14;3.80;;;2.00;;
5616;SDS011;2830;50.656;7.568;2023-07-31T12:08:41;3.80;;;1.83;;
5616;SDS011;2830;50.656;7.568;2023-07-31T12:11:08;4.90;;;1.80;;
5616;SDS011;2830;50.656;7.568;2023-07-31T12:13:36;4.93;;;1.63;;
5616;SDS011;2830;50.656;7.568;2023-07-31T12:16:03;2.80;;;1.63;;
5616;SDS011;2830;50.656;7.568;2023-07-31T12:18:38;4.47;;;2.23;;
5616;SDS011;2830;50.656;7.568;2023-07-31T12:21:05;6.23;;;2.63;;
5616;SDS011;2830;50.656;7.568;2023-07-31T12:23:35;5.30;;;2.03;;
5616;SDS011;2830;50.656;7.568;2023-07-31T12:28:44;4.90;;;1.87;;
5616;SDS011;2830;50.656;7.568;2023-07-31T12:31:13;4.50;;;1.80;;
5616;SDS011;2830;50.656;7.568;2023-07-31T12:33:43;5.43;;;1.50;;
5616;SDS011;2830;50.656;7.568;2023-07-31T12:36:15;5.20;;;1.83;;
5616;SDS011;2830;50.656;7.568;2023-07-31T12:38:44;3.17;;;1.70;;
5616;SDS011;2830;50.656;7.568;2023-07-31T12:41:12;2.90;;;1.40;;
5616;SDS011;2830;50.656;7.568;2023-07-31T12:43:40;3.43;;;1.50;;
5616;SDS011;2830;50.656;7.568;2023-07-31T12:46:08;2.80;;;1.80;;
5616;SDS011;2830;50.656;7.568;2023-07-31T12:48:36;4.90;;;1.97;;
5616;SDS011;2830;50.656;7.568;2023-07-31T12:51:04;4.07;;;1.93;;
5616;SDS011;2830;50.656;7.568;2023-07-31T12:53:31;3.83;;;2.10;;
5616;SDS011;2830;50.656;7.568;2023-07-31T12:55:57;3.70;;;1.60;;
5616;SDS011;2830;50.656;7.568;2023-07-31T12:58:24;2.33;;;1.40;;
5616;SDS011;2830;50.656;7.568;2023-07-31T13:00:51;4.60;;;1.67;;
5616;SDS011;2830;50.656;7.568;2023-07-31T13:03:18;5.03;;;1.33;;
5616;SDS011;2830;50.656;7.568;2023-07-31T13:05:45;5.40;;;2.53;;
5616;SDS011;2830;50.656;7.568;2023-07-31T13:08:12;3.47;;;2.13;;
5616;SDS011;2830;50.656;7.568;2023-07-31T13:10:38;3.37;;;1.50;;
5616;SDS011;2830;50.656;7.568;2023-07-31T13:13:05;6.00;;;1.87;;
5616;SDS011;2830;50.656;7.568;2023-07-31T13:15:32;2.33;;;1.57;;
5616;SDS011;2830;50.656;7.568;2023-07-31T13:17:59;3.60;;;1.80;;
5616;SDS011;2830;50.656;7.568;2023-07-31T13:20:26;4.03;;;1.73;;
5616;SDS011;2830;50.656;7.568;2023-07-31T13:22:52;3.00;;;2.23;;
5616;SDS011;2830;50.656;7.568;2023-07-31T13:25:19;4.10;;;1.87;;
5616;SDS011;2830;50.656;7.568;2023-07-31T13:27:46;3.80;;;1.93;;
5616;SDS011;2830;50.656;7.568;2023-07-31T13:30:13;3.90;;;2.23;;
5616;SDS011;2830;50.656;7.568;2023-07-31T13:32:39;4.27;;;2.30;;
5616;SDS011;2830;50.656;7.568;2023-07-31T13:35:06;4.57;;;2.60;;
5616;SDS011;2830;50.656;7.568;2023-07-31T13:37:34;4.30;;;2.90;;
5616;SDS011;2830;50.656;7.568;2023-07-31T13:40:01;4.30;;;2.60;;
5616;SDS011;2830;50.656;7.568;2023-07-31T13:42:31;4.90;;;2.67;;
5616;SDS011;2830;50.656;7.568;2023-07-31T13:44:57;5.27;;;3.30;;
5616;SDS011;2830;50.656;7.568;2023-07-31T13:47:24;6.17;;;3.13;;
5616;SDS011;2830;50.656;7.568;2023-07-31T13:49:51;4.80;;;2.80;;
5616;SDS011;2830;50.656;7.568;2023-07-31T13:52:18;3.90;;;2.77;;
5616;SDS011;2830;50.656;7.568;2023-07-31T13:54:46;5.10;;;3.37;;
5616;SDS011;2830;50.656;7.568;2023-07-31T13:57:13;4.87;;;2.60;;
5616;SDS011;2830;50.656;7.568;2023-07-31T13:59:40;3.10;;;2.00;;
5616;SDS011;2830;50.656;7.568;2023-07-31T14:02:06;6.37;;;2.30;;
5616;SDS011;2830;50.656;7.568;2023-07-31T14:04:33;4.73;;;2.30;;
5616;SDS011;2830;50.656;7.568;2023-07-31T14:07:00;4.20;;;2.23;;
5616;SDS011;2830;50.656;7.568;2023-07-31T14:09:27;6.10;;;2.30;;
5616;SDS011;2830;50.656;7.568;2023-07-31T14:11:54;2.90;;;1.83;;
5616;SDS011;2830;50.656;7.568;2023-07-31T14:14:21;3.80;;;2.07;;
5616;SDS011;2830;50.656;7.568;2023-07-31T14:16:48;3.33;;;2.00;;
5616;SDS011;2830;50.656;7.568;2023-07-31T14:19:15;3.33;;;1.93;;
5616;SDS011;2830;50.656;7.568;2023-07-31T14:21:42;4.67;;;2.20;;
5616;SDS011;2830;50.656;7.568;2023-07-31T14:24:19;4.60;;;1.70;;
5616;SDS011;2830;50.656;7.568;2023-07-31T14:26:45;3.23;;;2.07;;
5616;SDS011;2830;50.656;7.568;2023-07-31T14:29:12;4.47;;;1.83;;
5616;SDS011;2830;50.656;7.568;2023-07-31T14:31:39;2.80;;;1.77;;
5616;SDS011;2830;50.656;7.568;2023-07-31T14:34:06;3.33;;;2.03;;
5616;SDS011;2830;50.656;7.568;2023-07-31T14:36:32;3.03;;;2.00;;
5616;SDS011;2830;50.656;7.568;2023-07-31T14:38:59;4.87;;;1.57;;
5616;SDS011;2830;50.656;7.568;2023-07-31T14:41:26;3.60;;;1.97;;
5616;SDS011;2830;50.656;7.568;2023-07-31T14:43:52;3.43;;;1.60;;
5616;SDS011;2830;50.656;7.568;2023-07-31T14:46:19;3.97;;;2.83;;
5616;SDS011;2830;50.656;7.568;2023-07-31T14:48:46;3.07;;;1.70;;
5616;SDS011;2830;50.656;7.568;2023-07-31T14:51:13;5.03;;;1.63;;
5616;SDS011;2830;50.656;7.568;2023-07-31T14:53:40;2.30;;;1.33;;
5616;SDS011;2830;50.656;7.568;2023-07-31T14:56:07;3.10;;;1.80;;
5616;SDS011;2830;50.656;7.568;2023-07-31T14:58:34;3.90;;;1.73;;
5616;SDS011;2830;50.656;7.568;2023-07-31T15:01:00;3.67;;;1.83;;
5616;SDS011;2830;50.656;7.568;2023-07-31T15:03:28;3.40;;;1.80;;
5616;SDS011;2830;50.656;7.568;2023-07-31T15:05:54;3.57;;;1.93;;
5616;SDS011;2830;50.656;7.568;2023-07-31T15:08:21;2.60;;;1.37;;
5616;SDS011;2830;50.656;7.568;2023-07-31T15:10:48;2.67;;;1.47;;
5616;SDS011;2830;50.656;7.568;2023-07-31T15:13:15;3.90;;;1.47;;
5616;SDS011;2830;50.656;7.568;2023-07-31T15:15:42;2.43;;;1.37;;
5616;SDS011;2830;50.656;7.568;2023-07-31T15:18:08;3.30;;;1.40;;
5616;SDS011;2830;50.656;7.568;2023-07-31T15:20:35;7.27;;;3.40;;
5616;SDS011;2830;50.656;7.568;2023-07-31T15:23:02;3.53;;;2.00;;
5616;SDS011;2830;50.656;7.568;2023-07-31T15:25:29;2.90;;;1.67;;
5616;SDS011;2830;50.656;7.568;2023-07-31T15:27:55;4.47;;;1.60;;
5616;SDS011;2830;50.656;7.568;2023-07-31T15:30:22;4.30;;;1.90;;